createdAt,value
2022-11-25T02:45:08.800Z,1.60
2022-11-25T02:46:09.810Z,2.70
2022-11-25T02:47:09.616Z,2.80
2022-11-25T02:48:11.045Z,3.00
2022-11-25T02:49:09.965Z,3.30
2022-11-25T02:50:08.984Z,3.10
2022-11-25T02:51:11.045Z,3.50
2022-11-25T02:52:09.769Z,2.70
2022-11-25T02:53:17.193Z,2.70
2022-11-25T02:56:54.395Z,2.60
2022-11-25T02:58:24.078Z,2.60
2022-11-25T03:01:00.262Z,2.70
2022-11-25T03:02:24.845Z,2.40
2022-11-25T03:07:53.743Z,2.90
2022-11-25T03:10:19.820Z,3.00
2022-11-25T03:12:16.432Z,3.50
2022-11-25T03:14:57.401Z,3.20
2022-11-25T03:17:01.585Z,3.00
2022-11-25T03:17:39.697Z,3.50
2022-11-25T03:18:37.726Z,3.30
2022-11-25T03:19:21.230Z,3.10
2022-11-25T03:20:47.714Z,3.40
2022-11-25T03:21:23.124Z,3.70
2022-11-25T03:22:33.041Z,3.10
2022-11-25T03:27:22.055Z,2.70
2022-11-25T03:28:22.571Z,3.10
2022-11-25T03:29:23.038Z,2.90
2022-11-25T03:30:22.236Z,2.90
2022-11-25T03:31:22.451Z,3.10
2022-11-25T03:32:22.065Z,2.90
2022-11-25T03:33:22.178Z,3.30
2022-11-25T03:34:22.331Z,3.20
2022-11-25T03:35:22.482Z,2.50
2022-11-25T03:36:25.834Z,3.00
2022-11-25T03:37:22.198Z,2.90
2022-11-25T03:38:22.049Z,2.70
2022-11-25T03:39:24.914Z,2.30
2022-11-25T03:40:22.744Z,2.40
2022-11-25T03:41:22.902Z,2.00
2022-11-25T03:42:23.517Z,2.40
2022-11-25T03:43:21.992Z,2.30
2022-11-25T03:44:21.956Z,2.40
2022-11-25T03:45:22.136Z,2.50
2022-11-25T03:46:22.331Z,1.90
2022-11-25T03:47:22.191Z,2.20
2022-11-25T03:48:22.384Z,2.30
2022-11-25T03:49:21.917Z,2.30
2022-11-25T03:50:21.999Z,2.70
2022-11-25T03:51:22.436Z,2.50
2022-11-25T03:52:25.286Z,1.80
2022-11-25T03:53:28.171Z,2.20
2022-11-25T03:54:24.357Z,2.70
2022-11-25T03:55:26.812Z,2.60
2022-11-25T03:56:46.589Z,2.40
2022-11-25T03:57:27.522Z,2.60
2022-11-25T03:58:29.192Z,2.50
2022-11-25T03:59:28.759Z,2.00
2022-11-25T04:00:44.723Z,2.20
2022-11-25T04:01:31.613Z,2.40
2022-11-25T04:02:58.952Z,2.70
2022-11-25T04:04:13.130Z,2.20
2022-11-25T04:06:21.935Z,2.90
2022-11-25T04:08:12.160Z,2.10
2022-11-25T04:10:18.580Z,2.30
2022-11-25T04:17:08.511Z,2.80
2022-11-25T04:18:51.473Z,2.20
2022-11-25T04:19:34.423Z,2.70
2022-11-25T04:20:23.775Z,2.60
2022-11-25T04:21:20.016Z,2.50
2022-11-25T04:22:52.500Z,1.90
2022-11-25T04:24:53.258Z,2.20
2022-11-25T04:27:04.089Z,2.90
2022-11-25T04:32:09.267Z,2.40
2022-11-25T04:40:18.618Z,2.60
2022-11-25T04:41:18.630Z,2.60
2022-11-25T04:42:18.636Z,2.70
2022-11-25T04:43:18.702Z,2.90
2022-11-25T04:44:18.529Z,2.50
2022-11-25T04:45:23.421Z,2.30
2022-11-25T04:46:19.559Z,2.80
2022-11-25T04:47:18.487Z,2.50
2022-11-25T04:48:18.418Z,2.70
2022-11-25T04:49:18.419Z,2.70
2022-11-25T04:50:18.415Z,2.70
2022-11-25T04:51:18.461Z,2.70
2022-11-25T04:52:18.408Z,2.50
2022-11-25T04:53:18.401Z,2.40
2022-11-25T04:54:18.379Z,2.00
2022-11-25T04:55:18.381Z,3.00
2022-11-25T04:56:18.361Z,2.90
2022-11-25T04:57:18.408Z,2.90
2022-11-25T04:58:19.560Z,2.50
2022-11-25T04:59:19.530Z,2.70
2022-11-25T05:00:19.544Z,2.40
2022-11-25T05:01:19.594Z,2.80
2022-11-25T05:02:19.685Z,3.00
2022-11-25T05:03:19.529Z,2.50
2022-11-25T05:04:19.508Z,3.00
2022-11-25T05:05:19.518Z,2.70
2022-11-25T05:06:19.463Z,2.50
2022-11-25T05:07:20.496Z,2.80
2022-11-25T05:08:19.474Z,2.70
2022-11-25T05:09:19.426Z,2.80
2022-11-25T05:10:19.507Z,3.30
2022-11-25T05:11:19.418Z,3.00
2022-11-25T05:12:19.466Z,3.10
2022-11-25T05:13:19.409Z,3.00
2022-11-25T05:14:19.443Z,2.90
2022-11-25T05:15:19.457Z,2.60
2022-11-25T05:16:19.602Z,2.80
2022-11-25T05:17:19.396Z,2.60
2022-11-25T05:18:19.394Z,2.90
2022-11-25T05:19:19.364Z,2.70
2022-11-25T05:20:19.359Z,2.60
2022-11-25T05:21:19.440Z,2.70
2022-11-25T05:22:19.424Z,3.00
2022-11-25T05:23:19.374Z,2.80
2022-11-25T05:24:19.344Z,2.70
2022-11-25T05:25:19.273Z,2.70
2022-11-25T05:26:19.312Z,2.60
2022-11-25T05:27:19.330Z,2.50
2022-11-25T05:28:19.271Z,2.10
2022-11-25T05:29:19.270Z,2.80
2022-11-25T05:30:19.257Z,2.70
2022-11-25T05:31:19.305Z,2.70
2022-11-25T05:32:19.277Z,2.50
2022-11-25T05:33:19.264Z,2.70
2022-11-25T05:34:19.277Z,2.40
2022-11-25T05:35:19.225Z,2.90
2022-11-25T05:36:19.230Z,2.50
2022-11-25T05:37:24.173Z,2.20
2022-11-25T05:38:21.192Z,2.40
2022-11-25T05:39:19.145Z,2.80
2022-11-25T05:40:19.203Z,3.00
2022-11-25T05:41:19.170Z,2.50
2022-11-25T05:42:19.202Z,2.60
2022-11-25T05:43:19.205Z,2.90
2022-11-25T05:44:22.868Z,2.60
2022-11-25T05:45:20.129Z,2.30
2022-11-25T05:46:19.246Z,2.40
2022-11-25T05:47:19.127Z,3.30
2022-11-25T05:48:19.105Z,2.60
2022-11-25T05:49:19.073Z,2.80
2022-11-25T05:50:19.084Z,2.50
2022-11-25T05:51:19.069Z,2.60
2022-11-25T05:52:19.100Z,2.80
2022-11-25T05:53:19.010Z,2.60
2022-11-25T05:54:19.069Z,2.40
2022-11-25T05:55:19.009Z,2.90
2022-11-25T05:56:19.033Z,2.70
2022-11-25T05:57:19.044Z,2.40
2022-11-25T05:58:19.073Z,2.90
2022-11-25T05:59:18.975Z,2.90
2022-11-25T06:00:22.198Z,2.30
2022-11-25T06:01:20.970Z,2.60
2022-11-25T06:02:19.110Z,2.90
2022-11-25T06:03:19.029Z,2.70
2022-11-25T06:04:18.944Z,3.10
2022-11-25T06:05:18.958Z,2.70
2022-11-25T06:06:18.955Z,2.60
2022-11-25T06:07:18.926Z,2.80
2022-11-25T06:08:18.897Z,2.70
2022-11-25T06:09:18.915Z,2.40
2022-11-25T06:10:18.865Z,2.50
2022-11-25T06:11:18.913Z,2.60
2022-11-25T06:12:18.867Z,2.50
2022-11-25T06:13:18.869Z,3.10
2022-11-25T06:14:18.840Z,2.40
2022-11-25T06:15:18.812Z,3.10
2022-11-25T06:16:18.801Z,2.60
2022-11-25T06:17:18.921Z,2.70
2022-11-25T06:18:18.880Z,2.80
2022-11-25T06:19:18.833Z,2.70
2022-11-25T06:20:18.812Z,2.60
2022-11-25T06:21:18.791Z,2.80
2022-11-25T06:22:18.851Z,2.70
2022-11-25T06:23:18.839Z,2.80
2022-11-25T06:24:18.846Z,2.60
2022-11-25T06:25:18.768Z,2.80
2022-11-25T06:26:19.013Z,2.50
2022-11-25T06:27:18.892Z,3.20
2022-11-25T06:28:18.912Z,2.60
2022-11-25T06:29:18.731Z,2.80
2022-11-25T06:30:18.797Z,2.60
2022-11-25T06:31:18.771Z,2.50
2022-11-25T06:32:18.774Z,3.00
2022-11-25T06:33:18.693Z,3.00
2022-11-25T06:34:18.673Z,2.40
2022-11-25T06:35:18.701Z,2.70
2022-11-25T06:36:18.750Z,2.80
2022-11-25T06:37:18.654Z,2.60
2022-11-25T06:38:18.722Z,2.90
2022-11-25T06:39:18.819Z,3.10
2022-11-25T06:40:18.847Z,3.20
2022-11-25T06:41:18.590Z,3.00
2022-11-25T06:42:18.675Z,3.00
2022-11-25T06:43:18.574Z,2.50
2022-11-25T06:44:18.713Z,2.50
2022-11-25T06:45:18.609Z,2.50
2022-11-25T06:46:53.218Z,2.90
2022-11-25T06:50:58.104Z,2.30
2022-11-25T06:51:58.202Z,2.50
2022-11-25T06:52:58.114Z,2.60
2022-11-25T06:53:58.293Z,2.30
2022-11-25T06:54:58.002Z,2.70
2022-11-25T06:55:59.199Z,3.00
2022-11-25T06:56:59.236Z,2.60
2022-11-25T06:58:20.591Z,2.80
2022-11-25T06:59:01.219Z,2.30
2022-11-25T06:59:59.214Z,2.60
2022-11-25T07:00:59.186Z,2.40
2022-11-25T07:01:59.187Z,2.50
2022-11-25T07:02:59.208Z,2.70
2022-11-25T07:03:59.206Z,4.70
2022-11-25T07:04:59.136Z,2.90
2022-11-25T07:05:59.059Z,9.70
2022-11-25T07:06:59.224Z,10.40
2022-11-25T07:07:59.210Z,14.70
2022-11-25T07:08:58.995Z,5.80
2022-11-25T07:09:58.979Z,3.00
2022-11-25T07:10:58.968Z,24.10
2022-11-25T07:11:59.059Z,4.20
2022-11-25T07:12:58.980Z,3.60
2022-11-25T07:13:59.198Z,2.40
2022-11-25T07:14:58.986Z,2.60
2022-11-25T07:15:59.338Z,2.60
2022-11-25T07:16:59.006Z,3.00
2022-11-25T07:18:02.531Z,2.70
2022-11-25T07:18:59.294Z,2.60
2022-11-25T07:19:58.929Z,2.70
2022-11-25T07:20:59.401Z,2.90
2022-11-25T07:21:59.124Z,2.40
2022-11-25T07:22:59.013Z,2.50
2022-11-25T07:23:59.175Z,3.00
2022-11-25T07:24:59.518Z,3.00
2022-11-25T07:25:59.706Z,3.60
2022-11-25T07:26:59.513Z,3.40
2022-11-25T07:27:59.105Z,4.10
2022-11-25T07:28:59.138Z,4.50
2022-11-25T07:30:35.455Z,4.00
2022-11-25T07:32:03.384Z,5.20
2022-11-25T07:33:00.025Z,4.10
2022-11-25T07:33:59.074Z,3.60
2022-11-25T07:34:58.790Z,5.10
2022-11-25T07:35:59.089Z,4.70
2022-11-25T07:36:58.930Z,5.20
2022-11-25T07:37:59.079Z,4.80
2022-11-25T07:38:59.381Z,5.00
2022-11-25T07:39:58.887Z,4.00
2022-11-25T07:40:58.836Z,4.00
2022-11-25T07:41:58.810Z,4.00
2022-11-25T07:42:58.833Z,4.50
2022-11-25T07:43:58.895Z,4.30
2022-11-25T07:44:58.879Z,3.90
2022-11-25T07:45:58.870Z,3.80
2022-11-25T07:46:58.816Z,4.10
2022-11-25T07:47:59.147Z,4.10
2022-11-25T07:48:59.496Z,3.30
2022-11-25T07:49:59.155Z,2.90
2022-11-25T07:50:58.820Z,3.00
2022-11-25T07:51:59.074Z,2.90
2022-11-25T07:52:59.136Z,3.10
2022-11-25T07:53:58.976Z,3.30
2022-11-25T07:55:01.758Z,3.60
2022-11-25T07:55:59.020Z,3.00
2022-11-25T07:56:59.656Z,3.20
2022-11-25T07:57:59.134Z,3.00
2022-11-25T07:58:59.263Z,3.40
2022-11-25T07:59:59.051Z,3.20
2022-11-25T08:00:59.047Z,3.10
2022-11-25T08:01:59.085Z,2.60
2022-11-25T08:02:59.644Z,3.00
2022-11-25T08:03:58.727Z,2.80
2022-11-25T08:04:59.159Z,2.60
2022-11-25T08:05:58.881Z,2.60
2022-11-25T08:06:59.199Z,2.90
2022-11-25T08:07:58.767Z,2.90
2022-11-25T08:08:58.521Z,2.80
2022-11-25T08:09:58.636Z,2.70
2022-11-25T08:10:59.215Z,2.30
2022-11-25T08:11:58.596Z,2.50
2022-11-25T08:12:59.358Z,3.00
2022-11-25T08:13:58.608Z,2.30
2022-11-25T08:14:59.208Z,3.20
2022-11-25T08:15:59.171Z,3.30
2022-11-25T08:16:58.612Z,2.90
2022-11-25T08:18:00.309Z,3.20
2022-11-25T08:18:59.146Z,3.00
2022-11-25T08:19:58.984Z,3.40
2022-11-25T08:20:58.758Z,3.50
2022-11-25T08:21:58.537Z,2.60
2022-11-25T08:22:58.464Z,2.50
2022-11-25T08:23:58.646Z,2.30
2022-11-25T08:24:58.450Z,3.00
2022-11-25T08:25:58.458Z,2.60
2022-11-25T08:26:58.529Z,2.50
2022-11-25T08:27:58.309Z,2.80
2022-11-25T08:28:58.483Z,2.80
2022-11-25T08:29:58.386Z,2.70
2022-11-25T08:30:58.421Z,2.60
2022-11-25T08:31:58.434Z,3.20
2022-11-25T08:32:58.417Z,3.10
2022-11-25T08:33:58.731Z,2.80
2022-11-25T08:34:58.712Z,3.20
2022-11-25T08:35:58.916Z,2.80
2022-11-25T08:36:58.657Z,2.90
2022-11-25T08:38:33.041Z,2.70
2022-11-25T08:38:59.500Z,3.40
2022-11-25T08:40:24.886Z,3.50
2022-11-25T08:40:58.987Z,3.40
2022-11-25T08:41:58.681Z,3.30
2022-11-25T08:42:58.618Z,3.00
2022-11-25T08:43:58.431Z,2.70
2022-11-25T08:45:31.006Z,3.20
2022-11-25T08:45:58.708Z,3.00
2022-11-25T08:47:31.814Z,3.20
2022-11-25T08:47:59.474Z,3.40
2022-11-25T08:52:26.070Z,2.80
2022-11-25T08:53:35.261Z,2.90
2022-11-25T08:55:53.201Z,3.00
2022-11-25T08:56:53.142Z,3.00
2022-11-25T09:02:36.069Z,2.30
2022-11-25T09:05:22.932Z,2.20
2022-11-25T09:06:30.788Z,3.00
2022-11-25T09:07:32.056Z,2.90
2022-11-25T09:08:22.941Z,2.50
2022-11-25T09:09:32.162Z,2.70
2022-11-25T09:10:23.309Z,2.80
2022-11-25T09:13:33.653Z,2.60
2022-11-25T09:14:41.698Z,2.60
2022-11-25T09:17:07.535Z,2.70
2022-11-25T09:18:07.711Z,2.50
2022-11-25T09:19:07.824Z,2.20
2022-11-25T09:20:07.409Z,3.20
2022-11-25T09:21:17.182Z,2.60
2022-11-25T09:22:07.743Z,2.90
2022-11-25T09:23:07.623Z,2.80
2022-11-25T09:25:34.428Z,2.70
2022-11-25T09:26:34.585Z,2.80
2022-11-25T09:27:43.763Z,3.10
2022-11-25T09:28:44.221Z,3.20
2022-11-25T09:31:02.354Z,2.90
2022-11-25T09:32:10.144Z,2.40
2022-11-25T09:33:11.320Z,2.50
2022-11-25T09:34:02.471Z,3.00
2022-11-25T09:35:02.247Z,2.90
2022-11-25T09:36:12.213Z,2.90
2022-11-25T09:37:09.943Z,2.60
2022-11-25T09:38:10.509Z,3.00
2022-11-25T09:39:38.588Z,2.60
2022-11-25T09:40:03.939Z,2.80
2022-11-25T09:41:40.414Z,2.60
2022-11-25T09:42:04.311Z,3.10
2022-11-25T09:43:37.391Z,3.00
2022-11-25T09:47:41.200Z,3.10
2022-11-25T09:48:46.472Z,2.70
2022-11-25T09:49:46.217Z,2.80
2022-11-25T09:50:47.344Z,3.00
2022-11-25T09:52:12.862Z,3.10
2022-11-25T09:53:06.362Z,2.80
2022-11-25T09:56:18.486Z,3.20
2022-11-25T09:59:05.751Z,2.40
2022-11-25T10:00:05.051Z,2.30
2022-11-25T10:01:04.999Z,3.00
2022-11-25T10:02:04.910Z,3.50
2022-11-25T10:06:55.160Z,3.40
2022-11-25T10:07:58.917Z,3.30
2022-11-25T10:08:49.956Z,3.50
2022-11-25T10:09:57.644Z,4.00
2022-11-25T10:10:53.501Z,3.40
2022-11-25T10:12:23.710Z,3.80
2022-11-25T10:15:15.405Z,3.60
2022-11-25T10:16:15.755Z,3.30
2022-11-25T10:17:15.678Z,3.50
2022-11-25T10:18:18.422Z,3.20
2022-11-25T10:19:15.340Z,3.90
2022-11-25T10:20:24.231Z,3.90
2022-11-25T10:21:20.401Z,3.80
2022-11-25T10:22:16.854Z,3.40
2022-11-25T10:23:52.815Z,3.90
2022-11-25T10:24:17.789Z,3.50
2022-11-25T10:25:18.503Z,3.80
2022-11-25T10:35:41.605Z,3.30
2022-11-25T10:36:50.545Z,4.10
2022-11-25T10:39:08.548Z,3.50
2022-11-25T10:39:13.166Z,3.50
2022-11-25T10:40:19.776Z,4.10
2022-11-25T15:25:05.863Z,2.00
2022-11-25T15:26:05.857Z,2.80
2022-11-25T15:27:05.828Z,3.30
2022-11-25T15:28:05.834Z,2.90
2022-11-25T15:29:07.046Z,3.50
2022-11-25T15:30:10.396Z,3.90
2022-11-25T15:31:08.032Z,3.90
2022-11-25T15:32:07.600Z,5.00
2022-11-25T15:33:06.964Z,9.00
2022-11-25T15:34:06.897Z,7.80
2022-11-25T15:35:06.993Z,10.70
2022-11-25T15:36:06.930Z,9.00
2022-11-25T15:37:06.913Z,6.20
2022-11-25T15:38:06.933Z,5.10
2022-11-25T15:39:06.865Z,3.90
2022-11-25T15:40:06.880Z,7.10
2022-11-25T15:41:08.648Z,4.80
2022-11-25T15:42:06.854Z,4.00
2022-11-25T15:43:06.861Z,4.30
2022-11-25T15:44:07.082Z,4.40
2022-11-25T15:45:08.666Z,4.20
2022-11-25T15:46:07.886Z,3.80
2022-11-25T15:47:06.871Z,4.80
2022-11-25T15:48:06.808Z,4.90
2022-11-25T15:49:07.559Z,4.40
2022-11-25T15:50:06.807Z,4.80
2022-11-25T15:51:06.743Z,5.50
2022-11-25T15:52:06.797Z,6.30
2022-11-25T15:53:06.715Z,4.70
2022-11-25T15:54:06.751Z,6.30
2022-11-25T15:55:06.714Z,5.40
2022-11-25T15:56:06.711Z,4.30
2022-11-25T15:57:06.774Z,4.50
2022-11-25T15:58:06.655Z,4.10
2022-11-25T15:59:06.739Z,4.20
2022-11-25T16:00:06.684Z,4.30
2022-11-25T16:01:06.722Z,3.90
2022-11-25T16:02:06.737Z,4.40
2022-11-25T16:03:06.623Z,4.10
2022-11-25T16:04:06.672Z,4.30
2022-11-25T16:05:06.612Z,4.10
2022-11-25T16:06:06.641Z,4.00
2022-11-25T16:07:06.682Z,4.70
2022-11-25T16:08:06.638Z,4.20
2022-11-25T16:09:06.616Z,3.90
2022-11-25T16:10:06.610Z,4.10
2022-11-25T16:11:06.571Z,4.60
2022-11-25T16:12:07.591Z,5.60
2022-11-25T16:13:06.549Z,5.90
2022-11-25T16:14:06.533Z,5.00
2022-11-25T16:15:06.549Z,3.90
2022-11-25T16:16:06.576Z,4.60
2022-11-25T16:17:07.119Z,4.50
2022-11-25T16:18:32.357Z,4.20
2022-11-25T16:19:08.489Z,4.60
2022-11-25T16:20:06.487Z,4.50
2022-11-25T16:21:06.476Z,5.00
2022-11-25T16:22:06.486Z,4.10
2022-11-25T16:23:06.436Z,5.40
2022-11-25T16:24:06.441Z,4.00
2022-11-25T16:25:06.431Z,4.70
2022-11-25T16:26:06.428Z,4.70
2022-11-25T16:27:06.455Z,4.50
2022-11-25T16:28:06.412Z,4.30
2022-11-25T16:29:06.423Z,4.60
2022-11-25T16:30:06.347Z,5.00
2022-11-25T16:31:06.326Z,3.90
2022-11-25T16:32:06.468Z,4.10
2022-11-25T16:33:06.358Z,4.50
2022-11-25T16:34:06.328Z,4.10
2022-11-25T16:35:06.350Z,4.20
2022-11-25T16:36:09.505Z,4.50
2022-11-25T16:37:07.310Z,4.20
2022-11-25T16:38:06.320Z,4.50
2022-11-25T16:39:06.281Z,4.30
2022-11-25T16:40:06.270Z,4.80
2022-11-25T16:41:06.298Z,4.60
2022-11-25T16:42:06.268Z,4.40
2022-11-25T16:43:06.256Z,4.90
2022-11-25T16:44:09.026Z,4.80
2022-11-25T16:45:07.205Z,4.40
2022-11-25T16:46:06.341Z,4.50
2022-11-25T16:47:07.093Z,4.80
2022-11-25T16:48:06.192Z,4.60
2022-11-25T16:49:06.195Z,4.60
2022-11-25T16:50:09.881Z,5.10
2022-11-25T16:51:08.154Z,4.80
2022-11-25T16:53:35.132Z,4.70
2022-11-25T16:58:21.916Z,4.20
2022-11-25T17:00:37.229Z,4.10
2022-11-25T17:02:21.221Z,4.50
2022-11-25T17:14:46.072Z,4.60
2022-11-25T17:21:42.650Z,4.20
2022-11-25T17:34:05.593Z,6.60
2022-11-25T17:37:53.993Z,7.50
2022-11-25T17:46:27.635Z,5.30
2022-11-25T17:53:11.413Z,15.90
2022-11-25T17:54:31.372Z,76.90
2022-11-25T17:55:29.488Z,104.00
2022-11-25T17:56:26.530Z,80.40
2022-11-25T17:57:16.271Z,38.20
2022-11-25T17:58:19.961Z,23.40
2022-11-25T17:59:15.602Z,24.60
2022-11-25T18:00:13.517Z,17.10
2022-11-25T18:01:28.569Z,17.30
2022-11-25T18:02:25.109Z,10.50
2022-11-25T18:03:27.133Z,9.40
2022-11-25T18:29:14.025Z,4.60
2022-11-25T18:50:19.921Z,5.40
2022-11-25T18:53:38.554Z,5.30
2022-11-25T18:55:41.065Z,5.20
2022-11-25T19:00:41.901Z,5.90
2022-11-25T19:18:22.043Z,5.50
2022-11-25T19:19:31.387Z,5.40
2022-11-25T19:23:16.757Z,5.40
2022-11-25T19:28:26.699Z,5.00
2022-11-25T19:31:14.457Z,8.90
2022-11-25T19:32:15.273Z,8.30
2022-11-25T19:33:15.108Z,5.50
2022-11-25T19:34:14.797Z,5.60
2022-11-25T19:35:24.829Z,4.60
2022-11-25T19:36:42.291Z,4.90
2022-11-25T19:37:51.602Z,4.90
2022-11-25T19:38:16.553Z,5.00
2022-11-25T19:39:18.228Z,5.50
2022-11-25T19:45:20.167Z,4.30
2022-11-25T19:49:48.667Z,3.90
2022-11-25T19:58:44.318Z,4.10
2022-11-25T20:13:45.183Z,4.50
2022-11-25T20:21:29.574Z,4.30
2022-11-25T20:27:12.923Z,4.30
2022-11-25T20:30:34.639Z,4.60
2022-11-25T20:36:22.735Z,5.00
2022-11-25T20:53:29.228Z,5.80
2022-11-25T20:57:37.728Z,5.40
2022-11-25T20:59:42.030Z,5.20
2022-11-25T21:03:29.396Z,4.70
2022-11-25T21:09:16.496Z,5.30
2022-11-25T21:15:26.189Z,6.40
2022-11-25T21:20:16.975Z,5.70
2022-11-25T21:21:55.975Z,5.70
2022-11-25T21:25:28.808Z,6.20
2022-11-25T21:31:13.590Z,7.00
2022-11-25T21:32:13.864Z,6.60
2022-11-25T21:33:13.804Z,7.10
2022-11-25T21:34:15.314Z,7.20
2022-11-25T21:35:16.211Z,7.30
2022-11-25T21:46:57.545Z,7.70
2022-11-25T21:48:01.630Z,5.70
2022-11-25T21:52:00.771Z,5.80
2022-11-25T22:05:48.991Z,6.20
2022-11-25T22:07:34.422Z,4.90
2022-11-25T22:13:19.934Z,5.20
2022-11-25T22:20:40.485Z,5.10
2022-11-25T22:21:40.588Z,5.00
2022-11-25T22:26:02.086Z,5.90
2022-11-25T22:30:28.746Z,4.90
2022-11-25T22:31:32.553Z,5.40
2022-11-25T22:37:41.699Z,5.20
2022-11-25T22:51:12.724Z,5.60
